WetterOnline ( http://www.wetteronline.de )

Wetter aktuell Magdeburg

Aktuelles Wetter: Magdeburg (85m)

6-stündlich | Neueste Meldungen
Ortszeit Temperatur Wetter
Sa, 16.02. 13:00 14.5° C wolkenlos
Sa, 16.02. 7:00 -0.2° C wolkenlos
Sa, 16.02. 1:00 3.1° C wolkenlos
Fr, 15.02. 19:00 7.6° C wolkenlos
Fr, 15.02. 13:00 12.5° C wolkenlos
Fr, 15.02. 7:00 -1.1° C wolkenlos
Fr, 15.02. 1:00 1.3° C wolkenlos
Do, 14.02. 19:00 7.6° C wolkenlos
Ortszeit Temperatur Wetter
Sa, 16.02. 18:00 11.0° C wolkig
Sa, 16.02. 17:50 11.0° C wolkig
Sa, 16.02. 17:40 12.1° C wolkig
Sa, 16.02. 17:30 13.6° C wolkig
Sa, 16.02. 17:20 13.6° C wolkig
Sa, 16.02. 17:10 14.0° C wolkig
Sa, 16.02. 17:00 15.2° C leicht bewölkt
Sa, 16.02. 16:30 16.1° C wolkenlos
Sa, 16.02. 16:00 16.5° C wolkenlos
Sa, 16.02. 15:30 16.7° C wolkenlos
Sa, 16.02. 15:00 16.6° C wolkenlos
Ortszeit Relative Feuchte Sichtweite
Sa, 16.02. 13:00 46% 60 km
Sa, 16.02. 7:00 92% 10 km
Sa, 16.02. 1:00 83% 26 km
Fr, 15.02. 19:00 76% 24 km
Fr, 15.02. 13:00 46% 35 km
Fr, 15.02. 7:00 92% 24 km
Fr, 15.02. 1:00 87% 25 km
Do, 14.02. 19:00 62% 60 km
Ortszeit Relative Feuchte Sichtweite
Sa, 16.02. 18:00 58% 40 km
Sa, 16.02. 17:50 58% -
Sa, 16.02. 17:40 53% -
Sa, 16.02. 17:30 49% 65 km
Sa, 16.02. 17:20 49% -
Sa, 16.02. 17:10 47% -
Sa, 16.02. 17:00 43% 70 km
Sa, 16.02. 16:30 39% 70 km
Sa, 16.02. 16:00 38% 70 km
Sa, 16.02. 15:30 30% 70 km
Sa, 16.02. 15:00 30% 70 km
Ortszeit Niederschlagsmenge Niederschlagsart
Sa, 16.02. 13:00 0.0 l/m2 in 6 Std. -
Sa, 16.02. 7:00 0.0 l/m2 in 12 Std. -
Sa, 16.02. 1:00 0.0 l/m2 in 6 Std. -
Fr, 15.02. 19:00 0.0 l/m2 in 12 Std. -
Fr, 15.02. 13:00 0.0 l/m2 in 6 Std. -
Fr, 15.02. 7:00 0.0 l/m2 in 12 Std. -
Fr, 15.02. 1:00 0.0 l/m2 in 6 Std. -
Do, 14.02. 19:00 0.0 l/m2 in 12 Std. -
Ortszeit Niederschlagsmenge Niederschlagsart
Sa, 16.02. 18:00 0.0 l/m2 in 1 Std. -
Sa, 16.02. 17:50 keine Meldung -
Sa, 16.02. 17:40 keine Meldung -
Sa, 16.02. 17:30 0.0 l/m2 in 1 Std. -
Sa, 16.02. 17:20 keine Meldung -
Sa, 16.02. 17:10 keine Meldung -
Sa, 16.02. 17:00 0.0 l/m2 in 1 Std. -
Sa, 16.02. 16:30 0.0 l/m2 in 1 Std. -
Sa, 16.02. 16:00 0.0 l/m2 in 1 Std. -
Sa, 16.02. 15:30 0.0 l/m2 in 1 Std. -
Sa, 16.02. 15:00 0.0 l/m2 in 1 Std. -
Ortszeit Stärke Spitze Richtung
km/h Bft. km/h Grad Sektor
Sa, 16.02. 13:00 4 1 14 180° S
Sa, 16.02. 7:00 4 1 14 110° O
Sa, 16.02. 1:00 7 2 18 170° S
Fr, 15.02. 19:00 6 1 15 140° SO
Fr, 15.02. 13:00 7 2 11 180° S
Fr, 15.02. 7:00 4 1 11 220° SW
Fr, 15.02. 1:00 6 1 15 210° SW
Do, 14.02. 19:00 7 2 25 240° SW
Ortszeit Stärke Spitze Richtung
km/h Bft. km/h Grad Sektor
Sa, 16.02. 18:00 9 2 15 280° W
Sa, 16.02. 17:50 9 2 - 280° W
Sa, 16.02. 17:40 7 2 - 260° W
Sa, 16.02. 17:30 7 2 11 230° SW
Sa, 16.02. 17:20 7 2 - 230° SW
Sa, 16.02. 17:10 7 2 - 230° SW
Sa, 16.02. 17:00 6 1 9 210° SW
Sa, 16.02. 16:30 7 2 11 180° S
Sa, 16.02. 16:00 7 2 11 200° S
Sa, 16.02. 15:30 7 2 11 210° SW
Sa, 16.02. 15:00 7 2 11 210° SW
Ortszeit Untergrenze Bedeckung Gattung
total tief tief mittel hoch
Sa, 16.02. 13:00 - 0/8 0/8 - - -
Sa, 16.02. 7:00 - 0/8 0/8 - - -
Sa, 16.02. 1:00 - 0/8 0/8 - - -
Fr, 15.02. 19:00 - 0/8 0/8 - - -
Fr, 15.02. 13:00 - 0/8 0/8 - - -
Fr, 15.02. 7:00 - 0/8 0/8 - - -
Fr, 15.02. 1:00 - 0/8 0/8 - - -
Do, 14.02. 19:00 - 0/8 0/8 - - -
Ortszeit Bedeckungsgrad in Achtel und Wolkenuntergrenze
Sa, 16.02. 18:00 8(10500m)
Sa, 16.02. 17:50 8(10500m)
Sa, 16.02. 17:40 8(10500m)
Sa, 16.02. 17:30 8(10500m)
Sa, 16.02. 17:20 8(10500m)
Sa, 16.02. 17:10 8(10500m)
Sa, 16.02. 17:00 7(10500m)
Sa, 16.02. 16:30 3(10500m)
Sa, 16.02. 16:00 keine Wolken
Sa, 16.02. 15:30 keine Wolken
Sa, 16.02. 15:00 keine Wolken
Ortszeit Luftdruck NN (hPa) Tendenz (hPa in 3 Std.)
Sa, 16.02. 13:00 1026 - 0,3
Sa, 16.02. 7:00 1027 - 0,9
Sa, 16.02. 1:00 1029 - 1,4
Fr, 15.02. 19:00 1032 - 0,9
Fr, 15.02. 13:00 1034 - 0,8
Fr, 15.02. 7:00 1035 - 0,5
Fr, 15.02. 1:00 1035 + 0,2
Do, 14.02. 19:00 1035 - 0,3
Ortszeit Luftdruck NN (hPa) Tendenz (hPa in 3 Std.)
Sa, 16.02. 18:00 1025 - 0,6
Sa, 16.02. 17:50 1025 keine Meldung
Sa, 16.02. 17:40 1025 keine Meldung
Sa, 16.02. 17:30 1025 - 0,9
Sa, 16.02. 17:20 1025 keine Meldung
Sa, 16.02. 17:10 1025 keine Meldung
Sa, 16.02. 17:00 1025 - 1,1
Sa, 16.02. 16:30 1025 - 1,2
Sa, 16.02. 16:00 1025 - 1,1
Sa, 16.02. 15:30 1025 - 0,9
Sa, 16.02. 15:00 1025 - 0,9
Ortszeit Schneehöhe (cm)
Sa, 16.02. 13:00 0
Sa, 16.02. 7:00 0
Sa, 16.02. 1:00 0
Fr, 15.02. 19:00 0
Fr, 15.02. 13:00 0
Fr, 15.02. 7:00 0
Fr, 15.02. 1:00 0
Do, 14.02. 19:00 0
Ortszeit Schneehöhe (cm)
Sa, 16.02. 18:00 0
Sa, 16.02. 17:50 0
Sa, 16.02. 17:40 0
Sa, 16.02. 17:30 0
Sa, 16.02. 17:20 0
Sa, 16.02. 17:10 0
Sa, 16.02. 17:00 0
Sa, 16.02. 16:30 0
Sa, 16.02. 16:00 0
Sa, 16.02. 15:30 0
Sa, 16.02. 15:00 0
Link zu dieser Seite / Seite empfehlen

Das Wetter in ...